sensor_id;sensor_type;location;lat;lon;timestamp;P1;durP1;ratioP1;P2;durP2;ratioP2
20535;SDS011;10426;49.420;8.390;2023-03-01T00:01:56;8.90;;;7.95;;
20535;SDS011;10426;49.420;8.390;2023-03-01T00:04:23;9.13;;;8.00;;
20535;SDS011;10426;49.420;8.390;2023-03-01T00:06:49;9.07;;;8.17;;
20535;SDS011;10426;49.420;8.390;2023-03-01T00:09:16;10.15;;;8.20;;
20535;SDS011;10426;49.420;8.390;2023-03-01T00:11:43;9.02;;;7.95;;
20535;SDS011;10426;49.420;8.390;2023-03-01T00:14:11;10.52;;;8.68;;
20535;SDS011;10426;49.420;8.390;2023-03-01T00:16:38;14.15;;;9.18;;
20535;SDS011;10426;49.420;8.390;2023-03-01T00:19:05;12.53;;;9.23;;
20535;SDS011;10426;49.420;8.390;2023-03-01T00:21:32;11.55;;;8.98;;
20535;SDS011;10426;49.420;8.390;2023-03-01T00:24:00;12.75;;;8.55;;
20535;SDS011;10426;49.420;8.390;2023-03-01T00:26:27;9.38;;;8.48;;
20535;SDS011;10426;49.420;8.390;2023-03-01T00:28:54;9.70;;;8.52;;
20535;SDS011;10426;49.420;8.390;2023-03-01T00:31:23;9.43;;;8.45;;
20535;SDS011;10426;49.420;8.390;2023-03-01T00:33:52;9.73;;;8.55;;
20535;SDS011;10426;49.420;8.390;2023-03-01T00:36:18;9.47;;;8.57;;
20535;SDS011;10426;49.420;8.390;2023-03-01T00:38:45;11.55;;;10.35;;
20535;SDS011;10426;49.420;8.390;2023-03-01T00:41:13;10.38;;;9.30;;
20535;SDS011;10426;49.420;8.390;2023-03-01T00:43:40;10.23;;;9.32;;
20535;SDS011;10426;49.420;8.390;2023-03-01T00:46:08;10.07;;;9.15;;
20535;SDS011;10426;49.420;8.390;2023-03-01T00:48:36;11.73;;;10.60;;
20535;SDS011;10426;49.420;8.390;2023-03-01T00:51:06;16.10;;;12.43;;
20535;SDS011;10426;49.420;8.390;2023-03-01T00:53:33;21.83;;;18.50;;
20535;SDS011;10426;49.420;8.390;2023-03-01T00:56:00;20.15;;;16.85;;
20535;SDS011;10426;49.420;8.390;2023-03-01T00:58:26;22.98;;;18.98;;
20535;SDS011;10426;49.420;8.390;2023-03-01T01:00:53;11.52;;;10.43;;
20535;SDS011;10426;49.420;8.390;2023-03-01T01:03:20;11.20;;;10.02;;
20535;SDS011;10426;49.420;8.390;2023-03-01T01:05:48;10.93;;;9.83;;
20535;SDS011;10426;49.420;8.390;2023-03-01T01:08:15;10.45;;;9.45;;
20535;SDS011;10426;49.420;8.390;2023-03-01T01:10:43;10.93;;;9.82;;
20535;SDS011;10426;49.420;8.390;2023-03-01T01:13:09;10.10;;;9.20;;
20535;SDS011;10426;49.420;8.390;2023-03-01T01:15:36;10.57;;;9.48;;
20535;SDS011;10426;49.420;8.390;2023-03-01T01:18:02;10.73;;;9.63;;
20535;SDS011;10426;49.420;8.390;2023-03-01T01:20:29;11.15;;;9.60;;
20535;SDS011;10426;49.420;8.390;2023-03-01T01:22:57;10.73;;;9.70;;
20535;SDS011;10426;49.420;8.390;2023-03-01T01:25:24;10.77;;;9.77;;
20535;SDS011;10426;49.420;8.390;2023-03-01T01:27:51;11.10;;;10.00;;
20535;SDS011;10426;49.420;8.390;2023-03-01T01:30:17;11.10;;;9.98;;
20535;SDS011;10426;49.420;8.390;2023-03-01T01:32:44;11.80;;;9.90;;
20535;SDS011;10426;49.420;8.390;2023-03-01T01:35:11;11.57;;;10.10;;
20535;SDS011;10426;49.420;8.390;2023-03-01T01:37:37;12.13;;;10.43;;
20535;SDS011;10426;49.420;8.390;2023-03-01T01:40:06;10.90;;;9.90;;
20535;SDS011;10426;49.420;8.390;2023-03-01T01:42:32;11.13;;;10.13;;
20535;SDS011;10426;49.420;8.390;2023-03-01T01:47:44;10.63;;;9.60;;
20535;SDS011;10426;49.420;8.390;2023-03-01T01:50:14;11.50;;;10.30;;
20535;SDS011;10426;49.420;8.390;2023-03-01T01:52:43;11.20;;;10.07;;
20535;SDS011;10426;49.420;8.390;2023-03-01T01:55:11;11.70;;;10.50;;
20535;SDS011;10426;49.420;8.390;2023-03-01T01:57:41;11.40;;;10.30;;
20535;SDS011;10426;49.420;8.390;2023-03-01T02:00:11;11.02;;;9.93;;
20535;SDS011;10426;49.420;8.390;2023-03-01T02:02:38;10.75;;;9.75;;
20535;SDS011;10426;49.420;8.390;2023-03-01T02:05:12;11.27;;;10.25;;
20535;SDS011;10426;49.420;8.390;2023-03-01T02:07:41;10.23;;;9.23;;
20535;SDS011;10426;49.420;8.390;2023-03-01T02:10:09;11.48;;;9.77;;
20535;SDS011;10426;49.420;8.390;2023-03-01T02:12:37;10.35;;;9.45;;
20535;SDS011;10426;49.420;8.390;2023-03-01T02:15:05;10.70;;;9.75;;
20535;SDS011;10426;49.420;8.390;2023-03-01T02:17:32;11.05;;;10.05;;
20535;SDS011;10426;49.420;8.390;2023-03-01T02:20:03;10.70;;;9.70;;
20535;SDS011;10426;49.420;8.390;2023-03-01T02:22:33;11.82;;;10.68;;
20535;SDS011;10426;49.420;8.390;2023-03-01T02:25:04;11.55;;;10.38;;
20535;SDS011;10426;49.420;8.390;2023-03-01T02:27:38;11.47;;;10.37;;
20535;SDS011;10426;49.420;8.390;2023-03-01T02:30:08;11.65;;;10.55;;
20535;SDS011;10426;49.420;8.390;2023-03-01T02:32:38;11.93;;;10.73;;
20535;SDS011;10426;49.420;8.390;2023-03-01T02:35:08;12.43;;;11.20;;
20535;SDS011;10426;49.420;8.390;2023-03-01T02:37:34;12.50;;;11.20;;
20535;SDS011;10426;49.420;8.390;2023-03-01T02:40:03;12.60;;;11.30;;
20535;SDS011;10426;49.420;8.390;2023-03-01T02:42:30;14.07;;;12.57;;
20535;SDS011;10426;49.420;8.390;2023-03-01T02:44:58;15.88;;;13.02;;
20535;SDS011;10426;49.420;8.390;2023-03-01T02:47:26;13.98;;;12.57;;
20535;SDS011;10426;49.420;8.390;2023-03-01T02:49:52;12.68;;;11.38;;
20535;SDS011;10426;49.420;8.390;2023-03-01T02:55:02;11.90;;;10.70;;
20535;SDS011;10426;49.420;8.390;2023-03-01T02:57:30;11.80;;;10.63;;
20535;SDS011;10426;49.420;8.390;2023-03-01T02:59:59;12.05;;;10.88;;
20535;SDS011;10426;49.420;8.390;2023-03-01T03:02:28;12.30;;;11.20;;
20535;SDS011;10426;49.420;8.390;2023-03-01T03:05:03;12.07;;;10.88;;
20535;SDS011;10426;49.420;8.390;2023-03-01T03:07:31;12.32;;;11.20;;
20535;SDS011;10426;49.420;8.390;2023-03-01T03:09:58;12.43;;;11.23;;
20535;SDS011;10426;49.420;8.390;2023-03-01T03:12:25;12.23;;;11.07;;
20535;SDS011;10426;49.420;8.390;2023-03-01T03:14:51;12.55;;;11.45;;
20535;SDS011;10426;49.420;8.390;2023-03-01T03:17:18;11.93;;;10.82;;
20535;SDS011;10426;49.420;8.390;2023-03-01T03:19:46;11.95;;;10.85;;
20535;SDS011;10426;49.420;8.390;2023-03-01T03:22:12;12.73;;;11.52;;
20535;SDS011;10426;49.420;8.390;2023-03-01T03:24:39;12.65;;;11.18;;
20535;SDS011;10426;49.420;8.390;2023-03-01T03:27:06;12.32;;;11.07;;
20535;SDS011;10426;49.420;8.390;2023-03-01T03:29:33;12.23;;;11.02;;
20535;SDS011;10426;49.420;8.390;2023-03-01T03:31:59;11.55;;;10.45;;
20535;SDS011;10426;49.420;8.390;2023-03-01T03:34:26;12.20;;;11.10;;
20535;SDS011;10426;49.420;8.390;2023-03-01T03:36:54;12.23;;;10.95;;
20535;SDS011;10426;49.420;8.390;2023-03-01T03:39:24;11.57;;;10.48;;
20535;SDS011;10426;49.420;8.390;2023-03-01T03:41:51;11.83;;;10.73;;
20535;SDS011;10426;49.420;8.390;2023-03-01T03:44:18;12.77;;;11.48;;
20535;SDS011;10426;49.420;8.390;2023-03-01T03:46:45;12.52;;;10.90;;
20535;SDS011;10426;49.420;8.390;2023-03-01T03:49:12;12.73;;;11.53;;
20535;SDS011;10426;49.420;8.390;2023-03-01T03:51:38;12.10;;;11.00;;
20535;SDS011;10426;49.420;8.390;2023-03-01T03:54:06;12.57;;;11.40;;
20535;SDS011;10426;49.420;8.390;2023-03-01T03:56:33;12.73;;;11.50;;
20535;SDS011;10426;49.420;8.390;2023-03-01T03:59:00;12.43;;;11.23;;
20535;SDS011;10426;49.420;8.390;2023-03-01T04:01:26;13.18;;;11.93;;
20535;SDS011;10426;49.420;8.390;2023-03-01T04:03:53;13.05;;;11.80;;
20535;SDS011;10426;49.420;8.390;2023-03-01T04:06:20;12.25;;;11.15;;
20535;SDS011;10426;49.420;8.390;2023-03-01T04:08:47;13.77;;;12.13;;
20535;SDS011;10426;49.420;8.390;2023-03-01T04:11:17;13.02;;;11.73;;
20535;SDS011;10426;49.420;8.390;2023-03-01T04:13:54;12.60;;;11.48;;
20535;SDS011;10426;49.420;8.390;2023-03-01T04:16:20;13.15;;;11.85;;
20535;SDS011;10426;49.420;8.390;2023-03-01T04:18:47;14.18;;;12.23;;
20535;SDS011;10426;49.420;8.390;2023-03-01T04:21:14;13.40;;;12.00;;
20535;SDS011;10426;49.420;8.390;2023-03-01T04:23:40;13.83;;;12.50;;
20535;SDS011;10426;49.420;8.390;2023-03-01T04:26:07;13.93;;;12.47;;
20535;SDS011;10426;49.420;8.390;2023-03-01T04:28:36;14.55;;;13.07;;
20535;SDS011;10426;49.420;8.390;2023-03-01T04:31:03;14.57;;;13.15;;
20535;SDS011;10426;49.420;8.390;2023-03-01T04:33:38;15.02;;;13.45;;
20535;SDS011;10426;49.420;8.390;2023-03-01T04:36:05;14.65;;;13.25;;
20535;SDS011;10426;49.420;8.390;2023-03-01T04:38:34;14.73;;;13.27;;
20535;SDS011;10426;49.420;8.390;2023-03-01T04:41:02;17.05;;;15.32;;
20535;SDS011;10426;49.420;8.390;2023-03-01T04:43:29;16.98;;;15.27;;
20535;SDS011;10426;49.420;8.390;2023-03-01T04:46:00;17.40;;;15.60;;
20535;SDS011;10426;49.420;8.390;2023-03-01T04:48:29;16.08;;;14.30;;
20535;SDS011;10426;49.420;8.390;2023-03-01T04:50:55;15.20;;;13.60;;
20535;SDS011;10426;49.420;8.390;2023-03-01T04:53:22;15.00;;;13.52;;
20535;SDS011;10426;49.420;8.390;2023-03-01T04:55:48;15.38;;;13.88;;
20535;SDS011;10426;49.420;8.390;2023-03-01T04:58:15;15.20;;;13.60;;
20535;SDS011;10426;49.420;8.390;2023-03-01T05:00:42;15.03;;;13.50;;
20535;SDS011;10426;49.420;8.390;2023-03-01T05:03:10;14.55;;;13.15;;
20535;SDS011;10426;49.420;8.390;2023-03-01T05:05:37;14.90;;;13.40;;
20535;SDS011;10426;49.420;8.390;2023-03-01T05:08:04;15.10;;;13.70;;
20535;SDS011;10426;49.420;8.390;2023-03-01T05:10:32;16.02;;;14.38;;
20535;SDS011;10426;49.420;8.390;2023-03-01T05:13:00;15.30;;;13.80;;
20535;SDS011;10426;49.420;8.390;2023-03-01T05:15:28;15.35;;;13.75;;
20535;SDS011;10426;49.420;8.390;2023-03-01T05:17:55;15.15;;;13.75;;
20535;SDS011;10426;49.420;8.390;2023-03-01T05:20:25;16.10;;;14.40;;
20535;SDS011;10426;49.420;8.390;2023-03-01T05:22:52;15.98;;;14.20;;
20535;SDS011;10426;49.420;8.390;2023-03-01T05:25:21;15.48;;;13.98;;
20535;SDS011;10426;49.420;8.390;2023-03-01T05:27:47;16.75;;;13.73;;
20535;SDS011;10426;49.420;8.390;2023-03-01T05:30:14;15.30;;;13.70;;
20535;SDS011;10426;49.420;8.390;2023-03-01T05:32:43;15.70;;;14.20;;
20535;SDS011;10426;49.420;8.390;2023-03-01T05:35:10;15.77;;;14.25;;
20535;SDS011;10426;49.420;8.390;2023-03-01T05:37:40;15.73;;;14.13;;
20535;SDS011;10426;49.420;8.390;2023-03-01T05:40:08;16.05;;;14.55;;
20535;SDS011;10426;49.420;8.390;2023-03-01T05:42:43;15.95;;;14.35;;
20535;SDS011;10426;49.420;8.390;2023-03-01T05:45:10;15.30;;;13.80;;
20535;SDS011;10426;49.420;8.390;2023-03-01T05:47:37;15.20;;;13.70;;
20535;SDS011;10426;49.420;8.390;2023-03-01T05:50:05;17.52;;;15.82;;
20535;SDS011;10426;49.420;8.390;2023-03-01T05:52:32;20.17;;;17.45;;
20535;SDS011;10426;49.420;8.390;2023-03-01T05:55:00;17.85;;;15.90;;
20535;SDS011;10426;49.420;8.390;2023-03-01T05:57:27;17.13;;;15.33;;
20535;SDS011;10426;49.420;8.390;2023-03-01T05:59:54;16.58;;;14.88;;
20535;SDS011;10426;49.420;8.390;2023-03-01T06:02:21;15.93;;;14.32;;
20535;SDS011;10426;49.420;8.390;2023-03-01T06:04:48;15.63;;;14.03;;
20535;SDS011;10426;49.420;8.390;2023-03-01T06:07:14;15.93;;;14.27;;
20535;SDS011;10426;49.420;8.390;2023-03-01T06:09:41;16.50;;;14.77;;
20535;SDS011;10426;49.420;8.390;2023-03-01T06:12:09;16.08;;;14.38;;
20535;SDS011;10426;49.420;8.390;2023-03-01T06:14:36;16.90;;;14.40;;
20535;SDS011;10426;49.420;8.390;2023-03-01T06:17:03;16.05;;;14.48;;
20535;SDS011;10426;49.420;8.390;2023-03-01T06:19:29;15.98;;;14.27;;
20535;SDS011;10426;49.420;8.390;2023-03-01T06:21:56;15.80;;;14.20;;
20535;SDS011;10426;49.420;8.390;2023-03-01T06:24:23;15.98;;;14.38;;
20535;SDS011;10426;49.420;8.390;2023-03-01T06:26:49;15.80;;;14.20;;
20535;SDS011;10426;49.420;8.390;2023-03-01T06:29:17;16.47;;;14.87;;
20535;SDS011;10426;49.420;8.390;2023-03-01T06:31:44;16.77;;;15.02;;
20535;SDS011;10426;49.420;8.390;2023-03-01T06:34:11;16.88;;;15.18;;
20535;SDS011;10426;49.420;8.390;2023-03-01T06:36:38;16.38;;;14.70;;
20535;SDS011;10426;49.420;8.390;2023-03-01T06:39:05;16.83;;;15.13;;
20535;SDS011;10426;49.420;8.390;2023-03-01T06:41:32;17.38;;;15.48;;
20535;SDS011;10426;49.420;8.390;2023-03-01T06:43:59;17.37;;;15.67;;
20535;SDS011;10426;49.420;8.390;2023-03-01T06:46:27;17.42;;;15.60;;
20535;SDS011;10426;49.420;8.390;2023-03-01T06:48:54;17.10;;;15.27;;
20535;SDS011;10426;49.420;8.390;2023-03-01T06:51:20;17.33;;;15.43;;
20535;SDS011;10426;49.420;8.390;2023-03-01T06:53:47;16.38;;;14.57;;
20535;SDS011;10426;49.420;8.390;2023-03-01T06:56:13;16.80;;;15.10;;
20535;SDS011;10426;49.420;8.390;2023-03-01T06:58:40;21.75;;;15.50;;
20535;SDS011;10426;49.420;8.390;2023-03-01T07:01:07;19.17;;;15.23;;
20535;SDS011;10426;49.420;8.390;2023-03-01T07:03:35;18.50;;;15.27;;
20535;SDS011;10426;49.420;8.390;2023-03-01T07:06:01;20.37;;;15.77;;
20535;SDS011;10426;49.420;8.390;2023-03-01T07:08:28;20.17;;;15.57;;
20535;SDS011;10426;49.420;8.390;2023-03-01T07:10:55;20.52;;;15.77;;
20535;SDS011;10426;49.420;8.390;2023-03-01T07:13:22;17.93;;;15.53;;
20535;SDS011;10426;49.420;8.390;2023-03-01T07:15:48;20.25;;;15.60;;
20535;SDS011;10426;49.420;8.390;2023-03-01T07:18:15;18.55;;;15.10;;
20535;SDS011;10426;49.420;8.390;2023-03-01T07:20:43;20.35;;;14.98;;
20535;SDS011;10426;49.420;8.390;2023-03-01T07:23:09;17.65;;;14.93;;
20535;SDS011;10426;49.420;8.390;2023-03-01T07:25:36;16.38;;;14.68;;
20535;SDS011;10426;49.420;8.390;2023-03-01T07:28:03;20.10;;;15.27;;
20535;SDS011;10426;49.420;8.390;2023-03-01T07:30:29;16.85;;;15.02;;
20535;SDS011;10426;49.420;8.390;2023-03-01T07:32:56;18.35;;;14.60;;
20535;SDS011;10426;49.420;8.390;2023-03-01T07:35:24;16.10;;;14.40;;
20535;SDS011;10426;49.420;8.390;2023-03-01T07:37:52;15.93;;;14.10;;
20535;SDS011;10426;49.420;8.390;2023-03-01T07:40:19;15.65;;;14.02;;
20535;SDS011;10426;49.420;8.390;2023-03-01T07:42:45;15.52;;;13.85;;
20535;SDS011;10426;49.420;8.390;2023-03-01T07:45:12;14.95;;;13.45;;
20535;SDS011;10426;49.420;8.390;2023-03-01T07:47:39;14.55;;;13.05;;
20535;SDS011;10426;49.420;8.390;2023-03-01T07:50:06;15.05;;;13.40;;
20535;SDS011;10426;49.420;8.390;2023-03-01T07:52:33;16.30;;;13.38;;
20535;SDS011;10426;49.420;8.390;2023-03-01T07:55:01;16.52;;;13.65;;
20535;SDS011;10426;49.420;8.390;2023-03-01T07:57:27;14.77;;;13.20;;
20535;SDS011;10426;49.420;8.390;2023-03-01T07:59:54;16.20;;;14.10;;
20535;SDS011;10426;49.420;8.390;2023-03-01T08:02:20;15.93;;;13.40;;
20535;SDS011;10426;49.420;8.390;2023-03-01T08:04:47;15.23;;;13.63;;
20535;SDS011;10426;49.420;8.390;2023-03-01T08:07:14;15.13;;;13.60;;
20535;SDS011;10426;49.420;8.390;2023-03-01T08:09:40;14.95;;;13.45;;
20535;SDS011;10426;49.420;8.390;2023-03-01T08:12:08;14.55;;;13.20;;
20535;SDS011;10426;49.420;8.390;2023-03-01T08:14:35;15.27;;;13.52;;
20535;SDS011;10426;49.420;8.390;2023-03-01T08:17:01;15.23;;;13.75;;
20535;SDS011;10426;49.420;8.390;2023-03-01T08:19:29;16.00;;;13.10;;
20535;SDS011;10426;49.420;8.390;2023-03-01T08:21:56;14.88;;;13.48;;
20535;SDS011;10426;49.420;8.390;2023-03-01T08:24:23;15.40;;;13.77;;
20535;SDS011;10426;49.420;8.390;2023-03-01T08:26:50;14.25;;;12.85;;
20535;SDS011;10426;49.420;8.390;2023-03-01T08:29:18;15.30;;;13.32;;
20535;SDS011;10426;49.420;8.390;2023-03-01T08:31:44;16.35;;;14.10;;
20535;SDS011;10426;49.420;8.390;2023-03-01T08:34:12;15.93;;;13.25;;
20535;SDS011;10426;49.420;8.390;2023-03-01T08:36:40;15.65;;;13.10;;
20535;SDS011;10426;49.420;8.390;2023-03-01T08:39:07;15.33;;;13.73;;
20535;SDS011;10426;49.420;8.390;2023-03-01T08:41:34;15.73;;;13.55;;
20535;SDS011;10426;49.420;8.390;2023-03-01T08:44:01;15.57;;;13.85;;
20535;SDS011;10426;49.420;8.390;2023-03-01T08:46:29;22.17;;;19.85;;
20535;SDS011;10426;49.420;8.390;2023-03-01T08:48:56;15.10;;;13.57;;
20535;SDS011;10426;49.420;8.390;2023-03-01T08:51:23;21.70;;;18.95;;
20535;SDS011;10426;49.420;8.390;2023-03-01T08:53:50;21.83;;;18.17;;
20535;SDS011;10426;49.420;8.390;2023-03-01T08:56:17;24.33;;;20.13;;
20535;SDS011;10426;49.420;8.390;2023-03-01T08:58:45;18.92;;;16.73;;
20535;SDS011;10426;49.420;8.390;2023-03-01T09:01:12;17.25;;;15.55;;
20535;SDS011;10426;49.420;8.390;2023-03-01T09:03:41;14.35;;;12.95;;
20535;SDS011;10426;49.420;8.390;2023-03-01T09:06:08;14.55;;;13.15;;
20535;SDS011;10426;49.420;8.390;2023-03-01T09:08:35;14.63;;;13.23;;
20535;SDS011;10426;49.420;8.390;2023-03-01T09:11:02;14.85;;;13.18;;
20535;SDS011;10426;49.420;8.390;2023-03-01T09:13:29;14.75;;;13.30;;
20535;SDS011;10426;49.420;8.390;2023-03-01T09:15:57;15.27;;;13.38;;
20535;SDS011;10426;49.420;8.390;2023-03-01T09:18:24;14.60;;;13.20;;
20535;SDS011;10426;49.420;8.390;2023-03-01T09:20:52;18.58;;;13.55;;
20535;SDS011;10426;49.420;8.390;2023-03-01T09:23:20;16.92;;;13.43;;
20535;SDS011;10426;49.420;8.390;2023-03-01T09:25:47;15.10;;;13.60;;
20535;SDS011;10426;49.420;8.390;2023-03-01T09:28:13;14.60;;;13.15;;
20535;SDS011;10426;49.420;8.390;2023-03-01T09:30:40;14.65;;;13.07;;
20535;SDS011;10426;49.420;8.390;2023-03-01T09:33:07;15.68;;;13.50;;
20535;SDS011;10426;49.420;8.390;2023-03-01T09:35:39;14.95;;;13.45;;
20535;SDS011;10426;49.420;8.390;2023-03-01T09:38:12;15.15;;;13.65;;
20535;SDS011;10426;49.420;8.390;2023-03-01T09:40:41;14.23;;;12.60;;
20535;SDS011;10426;49.420;8.390;2023-03-01T09:43:12;14.20;;;12.85;;
20535;SDS011;10426;49.420;8.390;2023-03-01T09:45:40;14.82;;;13.35;;
20535;SDS011;10426;49.420;8.390;2023-03-01T09:48:09;14.65;;;13.23;;
20535;SDS011;10426;49.420;8.390;2023-03-01T09:50:38;14.35;;;12.93;;
20535;SDS011;10426;49.420;8.390;2023-03-01T09:53:05;15.02;;;13.52;;
20535;SDS011;10426;49.420;8.390;2023-03-01T09:55:37;15.20;;;13.70;;
20535;SDS011;10426;49.420;8.390;2023-03-01T09:58:25;15.43;;;13.83;;
20535;SDS011;10426;49.420;8.390;2023-03-01T10:00:52;15.50;;;13.33;;
20535;SDS011;10426;49.420;8.390;2023-03-01T10:03:22;17.30;;;14.38;;
20535;SDS011;10426;49.420;8.390;2023-03-01T10:05:52;14.73;;;13.23;;
20535;SDS011;10426;49.420;8.390;2023-03-01T10:08:31;14.10;;;12.60;;
20535;SDS011;10426;49.420;8.390;2023-03-01T10:11:03;15.13;;;12.95;;
20535;SDS011;10426;49.420;8.390;2023-03-01T10:13:33;15.20;;;13.52;;
20535;SDS011;10426;49.420;8.390;2023-03-01T10:16:04;13.32;;;11.93;;
20535;SDS011;10426;49.420;8.390;2023-03-01T10:18:32;14.52;;;13.13;;
20535;SDS011;10426;49.420;8.390;2023-03-01T10:21:02;14.27;;;12.83;;
20535;SDS011;10426;49.420;8.390;2023-03-01T10:23:30;15.30;;;13.80;;
20535;SDS011;10426;49.420;8.390;2023-03-01T10:26:08;15.33;;;13.77;;
20535;SDS011;10426;49.420;8.390;2023-03-01T10:28:40;15.40;;;14.00;;
20535;SDS011;10426;49.420;8.390;2023-03-01T10:31:11;14.93;;;13.30;;
20535;SDS011;10426;49.420;8.390;2023-03-01T10:33:38;14.95;;;13.45;;
20535;SDS011;10426;49.420;8.390;2023-03-01T10:36:06;14.80;;;13.30;;
20535;SDS011;10426;49.420;8.390;2023-03-01T10:38:46;14.57;;;13.18;;
20535;SDS011;10426;49.420;8.390;2023-03-01T10:41:14;14.40;;;12.90;;
20535;SDS011;10426;49.420;8.390;2023-03-01T10:43:43;14.43;;;12.95;;
20535;SDS011;10426;49.420;8.390;2023-03-01T10:46:21;14.07;;;12.68;;
20535;SDS011;10426;49.420;8.390;2023-03-01T10:48:53;14.52;;;12.82;;
20535;SDS011;10426;49.420;8.390;2023-03-01T10:51:31;15.23;;;13.83;;
20535;SDS011;10426;49.420;8.390;2023-03-01T10:53:58;14.90;;;13.40;;
20535;SDS011;10426;49.420;8.390;2023-03-01T10:56:26;15.00;;;13.50;;
20535;SDS011;10426;49.420;8.390;2023-03-01T10:58:59;16.42;;;13.70;;
20535;SDS011;10426;49.420;8.390;2023-03-01T11:01:26;15.52;;;13.80;;
20535;SDS011;10426;49.420;8.390;2023-03-01T11:04:03;15.35;;;13.73;;
20535;SDS011;10426;49.420;8.390;2023-03-01T11:06:36;15.47;;;14.07;;
20535;SDS011;10426;49.420;8.390;2023-03-01T11:09:12;15.50;;;14.02;;
20535;SDS011;10426;49.420;8.390;2023-03-01T11:11:41;14.43;;;12.80;;
20535;SDS011;10426;49.420;8.390;2023-03-01T11:14:13;14.13;;;12.63;;
20535;SDS011;10426;49.420;8.390;2023-03-01T11:16:42;17.73;;;15.93;;
20535;SDS011;10426;49.420;8.390;2023-03-01T11:19:14;16.05;;;14.35;;
20535;SDS011;10426;49.420;8.390;2023-03-01T11:21:43;14.68;;;13.18;;
20535;SDS011;10426;49.420;8.390;2023-03-01T11:24:11;15.45;;;13.70;;
20535;SDS011;10426;49.420;8.390;2023-03-01T11:26:41;21.35;;;16.88;;
20535;SDS011;10426;49.420;8.390;2023-03-01T11:29:13;15.32;;;13.73;;
20535;SDS011;10426;49.420;8.390;2023-03-01T11:31:42;15.85;;;14.25;;
20535;SDS011;10426;49.420;8.390;2023-03-01T11:34:10;14.90;;;13.47;;
20535;SDS011;10426;49.420;8.390;2023-03-01T11:36:39;14.80;;;13.43;;
20535;SDS011;10426;49.420;8.390;2023-03-01T11:39:12;19.35;;;17.27;;
20535;SDS011;10426;49.420;8.390;2023-03-01T11:41:43;17.17;;;15.37;;
20535;SDS011;10426;49.420;8.390;2023-03-01T11:44:14;14.85;;;13.48;;
20535;SDS011;10426;49.420;8.390;2023-03-01T11:49:40;14.20;;;12.80;;
20535;SDS011;10426;49.420;8.390;2023-03-01T11:52:09;14.73;;;13.27;;
20535;SDS011;10426;49.420;8.390;2023-03-01T11:54:44;15.90;;;14.30;;
20535;SDS011;10426;49.420;8.390;2023-03-01T11:57:16;16.98;;;15.15;;
20535;SDS011;10426;49.420;8.390;2023-03-01T12:02:50;13.63;;;12.32;;
20535;SDS011;10426;49.420;8.390;2023-03-01T12:05:35;14.57;;;13.18;;
20535;SDS011;10426;49.420;8.390;2023-03-01T12:08:05;16.02;;;14.25;;
20535;SDS011;10426;49.420;8.390;2023-03-01T12:10:35;14.93;;;13.43;;
20535;SDS011;10426;49.420;8.390;2023-03-01T12:13:13;14.18;;;12.68;;
20535;SDS011;10426;49.420;8.390;2023-03-01T12:15:45;15.48;;;13.45;;
20535;SDS011;10426;49.420;8.390;2023-03-01T12:18:23;13.95;;;12.63;;
20535;SDS011;10426;49.420;8.390;2023-03-01T12:20:58;13.57;;;12.37;;
20535;SDS011;10426;49.420;8.390;2023-03-01T12:23:37;16.02;;;14.43;;
20535;SDS011;10426;49.420;8.390;2023-03-01T12:26:07;13.85;;;12.52;;
20535;SDS011;10426;49.420;8.390;2023-03-01T12:31:38;14.10;;;12.70;;
20535;SDS011;10426;49.420;8.390;2023-03-01T12:34:08;15.80;;;14.20;;
20535;SDS011;10426;49.420;8.390;2023-03-01T12:39:22;14.18;;;12.75;;
20535;SDS011;10426;49.420;8.390;2023-03-01T12:41:52;13.38;;;12.07;;
20535;SDS011;10426;49.420;8.390;2023-03-01T12:44:27;12.82;;;11.63;;
20535;SDS011;10426;49.420;8.390;2023-03-01T12:47:02;13.27;;;12.03;;
20535;SDS011;10426;49.420;8.390;2023-03-01T12:49:32;14.43;;;13.00;;
20535;SDS011;10426;49.420;8.390;2023-03-01T12:52:00;13.77;;;12.40;;
20535;SDS011;10426;49.420;8.390;2023-03-01T12:54:28;13.73;;;12.45;;
20535;SDS011;10426;49.420;8.390;2023-03-01T12:56:56;14.55;;;13.00;;
20535;SDS011;10426;49.420;8.390;2023-03-01T12:59:24;13.90;;;12.60;;
20535;SDS011;10426;49.420;8.390;2023-03-01T13:01:54;18.70;;;14.95;;
20535;SDS011;10426;49.420;8.390;2023-03-01T13:04:31;15.48;;;13.88;;
20535;SDS011;10426;49.420;8.390;2023-03-01T13:07:04;14.38;;;12.88;;
20535;SDS011;10426;49.420;8.390;2023-03-01T13:09:36;14.23;;;12.80;;
20535;SDS011;10426;49.420;8.390;2023-03-01T13:12:04;14.03;;;12.53;;
20535;SDS011;10426;49.420;8.390;2023-03-01T13:14:50;12.30;;;10.90;;
20535;SDS011;10426;49.420;8.390;2023-03-01T13:17:29;11.63;;;10.52;;
20535;SDS011;10426;49.420;8.390;2023-03-01T13:19:58;13.97;;;12.57;;
20535;SDS011;10426;49.420;8.390;2023-03-01T13:22:25;12.07;;;10.88;;
20535;SDS011;10426;49.420;8.390;2023-03-01T13:25:00;14.93;;;13.23;;
20535;SDS011;10426;49.420;8.390;2023-03-01T13:27:27;11.25;;;10.13;;
20535;SDS011;10426;49.420;8.390;2023-03-01T13:29:55;13.57;;;12.23;;
20535;SDS011;10426;49.420;8.390;2023-03-01T13:32:22;11.30;;;10.20;;
20535;SDS011;10426;49.420;8.390;2023-03-01T13:34:50;11.40;;;10.37;;
20535;SDS011;10426;49.420;8.390;2023-03-01T13:37:23;11.80;;;10.68;;
20535;SDS011;10426;49.420;8.390;2023-03-01T13:39:51;13.03;;;11.83;;
20535;SDS011;10426;49.420;8.390;2023-03-01T13:44:59;12.55;;;11.43;;
20535;SDS011;10426;49.420;8.390;2023-03-01T13:47:26;10.23;;;9.30;;
20535;SDS011;10426;49.420;8.390;2023-03-01T13:49:55;11.50;;;10.40;;
20535;SDS011;10426;49.420;8.390;2023-03-01T13:52:30;13.67;;;11.70;;
20535;SDS011;10426;49.420;8.390;2023-03-01T13:54:58;11.15;;;10.15;;
20535;SDS011;10426;49.420;8.390;2023-03-01T13:57:28;11.13;;;10.02;;
20535;SDS011;10426;49.420;8.390;2023-03-01T13:59:56;10.98;;;9.93;;
20535;SDS011;10426;49.420;8.390;2023-03-01T14:02:23;10.38;;;9.38;;
20535;SDS011;10426;49.420;8.390;2023-03-01T14:04:55;10.13;;;9.13;;
20535;SDS011;10426;49.420;8.390;2023-03-01T14:07:22;11.68;;;9.48;;
20535;SDS011;10426;49.420;8.390;2023-03-01T14:09:52;10.35;;;9.43;;
20535;SDS011;10426;49.420;8.390;2023-03-01T14:12:23;10.52;;;9.63;;
20535;SDS011;10426;49.420;8.390;2023-03-01T14:14:52;10.50;;;9.32;;
20535;SDS011;10426;49.420;8.390;2023-03-01T14:17:27;10.05;;;8.90;;
20535;SDS011;10426;49.420;8.390;2023-03-01T14:19:58;10.40;;;8.95;;
20535;SDS011;10426;49.420;8.390;2023-03-01T14:22:25;9.88;;;8.98;;
20535;SDS011;10426;49.420;8.390;2023-03-01T14:24:55;9.73;;;8.88;;
20535;SDS011;10426;49.420;8.390;2023-03-01T14:27:23;9.80;;;8.80;;
20535;SDS011;10426;49.420;8.390;2023-03-01T14:29:54;9.90;;;9.00;;
20535;SDS011;10426;49.420;8.390;2023-03-01T14:32:22;9.82;;;8.75;;
20535;SDS011;10426;49.420;8.390;2023-03-01T14:34:50;9.55;;;8.75;;
20535;SDS011;10426;49.420;8.390;2023-03-01T14:37:19;9.60;;;8.60;;
20535;SDS011;10426;49.420;8.390;2023-03-01T14:39:45;9.63;;;8.82;;
20535;SDS011;10426;49.420;8.390;2023-03-01T14:42:14;9.20;;;8.35;;
20535;SDS011;10426;49.420;8.390;2023-03-01T14:44:42;8.60;;;7.90;;
20535;SDS011;10426;49.420;8.390;2023-03-01T14:47:10;9.55;;;8.65;;
20535;SDS011;10426;49.420;8.390;2023-03-01T14:49:38;9.07;;;8.27;;
20535;SDS011;10426;49.420;8.390;2023-03-01T14:52:06;9.10;;;8.30;;